Terminal Aerodrome Forecast
Issued by NWS San Angelo, TX

Current Version | Previous Version | Text Only | Print | Product List | Glossary On
Versions: 1 2 3 4 5 6 7 8 9 10 11 12 13 14 15
000
FTUS44 KSJT 201745
TAFABI
TAF
KABI 201745Z 2018/2118 17015G22KT P6SM VCSH SCT150
     FM202000 17014G20KT P6SM BKN040
     FM210100 16013KT P6SM SCT250
     FM211200 18013G22KT P6SM BKN025
     FM211700 18018G26KT P6SM SCT030=

USA.gov is the U.S. government's official web portal to all federal, state and local government web resources and services.